OAKB/KBL METAR and TAF weather

Enter ICAO airport designator
Station Type Date Time Source
OAKB METAR 2021/08/30 17:16 UTC NOAA

OAKB 301716Z AUTO VRB06KT 9999 FEW060 SCT085 BKN110 25/04 A3005 RMK AO2 PK WND 01026/1655 SLP997 WND DATA ESTMD TSNO $


Station Type Date Time Source
OAKB Decoded METAR 2021/08/30 17:16 UTC NOAA

Kabul Airport, Afghanistan (OAKB) 34-38N 069-12E
Aug 30, 2021 - 01:16 PM EDT / 2021.08.30 1716 UTC
Wind: Variable at 7 MPH (6 KT):0
Visibility: greater than 7 mile(s):0
Sky conditions: mostly cloudy
Temperature: 77 F (25 C)
Dew Point: 39 F (4 C)
Relative Humidity: 25%
Pressure (altimeter): 30.05 in. Hg (1017 hPa)
ob: OAKB 301716Z AUTO VRB06KT 9999 FEW060 SCT085 BKN110 25/04 A3005 RMK AO2 PK WND 01026/1655 SLP997 WND DATA ESTMD TSNO
cycle: 17

Station Type Date Time Source
OAKB TAF 2021/09/02 09:06 UTC NOAA

TAF TAF OAKB 020900Z 0209/0315 04010G15KT 9999 SKC QNH3001INS
TEMPO 0209/0212 VCTS SCT140CB
BECMG 0214/0215 VRB06KT 9999 FEW140 QNH2998INS
BECMG 0304/0305 04010G15KT 9999 SKC QNH3004INS
TEMPO 0309/0312 VCTS SCT140CB
BECMG 0314/0315 VRB06KT 9999 SKC QNH2993INS TX28/0211Z TN11/0301Z LAST

Example: see airport list